Time;durP1;ratioP1;P1;durP2;ratioP2;P2;SDS_P1;SDS_P2;PMS_P1;PMS_P2;Temp;Humidity;BMP_temperature;BMP_pressure;BME280_temperature;BME280_humidity;BME280_pressure;Samples;Min_cycle;Max_cycle;Signal;HPM_P1;HPM_P2
2022/03/24 00:00:16;;;;;;;41.95;26.38;;;5.20;1.00;;;4.89;53.55;102460.78;4938914;29;20196;-70
2022/03/24 00:02:47;;;;;;;49.97;30.70;;;5.20;1.00;;;4.77;53.91;102460.81;4938707;29;20189;-70
2022/03/24 00:05:17;;;;;;;44.00;28.85;;;5.10;1.00;;;4.82;53.94;102463.97;4937905;29;20647;-68
2022/03/24 00:07:46;;;;;;;39.88;27.00;;;5.00;1.00;;;4.85;53.91;102462.00;4937469;29;20268;-69
2022/03/24 00:10:16;;;;;;;40.35;26.83;;;5.00;1.00;;;4.76;53.68;102453.72;4937494;29;20192;-69
2022/03/24 00:12:44;;;;;;;41.70;28.95;;;5.00;1.00;;;4.86;53.68;102456.50;4937628;29;20196;-68
2022/03/24 00:15:14;;;;;;;40.17;28.38;;;5.00;1.00;;;4.78;54.11;102456.31;4937814;29;20560;-69
2022/03/24 00:17:43;;;;;;;38.15;26.55;;;5.00;1.00;;;4.77;54.36;102454.59;4937362;29;20664;-69
2022/03/24 00:20:14;;;;;;;39.72;28.15;;;5.00;1.00;;;4.71;54.06;102453.25;4937722;29;20267;-69
2022/03/24 00:22:43;;;;;;;43.78;28.17;;;5.00;1.00;;;4.75;54.08;102453.84;4938815;29;20220;-69
2022/03/24 00:25:12;;;;;;;46.20;28.75;;;4.90;1.00;;;4.64;54.46;102451.22;4937836;29;20177;-69
2022/03/24 00:27:41;;;;;;;50.10;30.83;;;4.90;1.00;;;4.52;54.67;102447.69;4938176;29;20264;-70
2022/03/24 00:30:12;;;;;;;39.30;28.58;;;4.80;1.00;;;4.61;54.48;102448.78;4937406;29;20241;-69
2022/03/24 00:32:41;;;;;;;46.13;30.58;;;4.80;1.00;;;4.52;54.59;102449.53;4935752;29;20268;-67
2022/03/24 00:35:10;;;;;;;40.58;27.92;;;4.70;1.00;;;4.47;55.08;102449.91;4920143;29;20193;-69
2022/03/24 00:37:41;;;;;;;40.88;29.63;;;4.70;1.00;;;4.33;54.92;102443.00;4936825;28;20709;-69
2022/03/24 00:40:17;;;;;;;44.70;27.90;;;4.60;1.00;;;4.29;55.57;102433.50;4931294;29;20208;-68
2022/03/24 00:42:49;;;;;;;44.65;29.23;;;4.50;1.00;;;4.26;55.36;102441.75;4945106;29;20740;-69
2022/03/24 00:45:19;;;;;;;42.05;28.33;;;4.50;1.00;;;4.22;55.54;102448.34;4937618;29;20192;-69
2022/03/24 00:47:48;;;;;;;45.70;29.13;;;4.50;1.10;;;4.14;55.77;102447.28;4936007;29;20209;-69
2022/03/24 00:50:17;;;;;;;52.20;32.80;;;4.40;1.40;;;4.12;55.71;102444.69;4936921;29;20709;-69
2022/03/24 00:52:47;;;;;;;40.83;28.17;;;4.40;1.90;;;4.23;56.07;102451.88;4936646;29;20185;-70
2022/03/24 00:55:20;;;;;;;45.13;28.85;;;4.40;2.20;;;4.20;55.80;102444.97;4936576;29;20256;-69
2022/03/24 00:57:52;;;;;;;49.83;30.48;;;4.40;2.00;;;4.23;55.67;102441.16;4936090;29;20209;-69
2022/03/24 01:00:25;;;;;;;40.88;28.85;;;4.40;2.10;;;4.27;55.74;102442.63;4936081;29;20181;-69
2022/03/24 01:02:55;;;;;;;42.55;25.90;;;4.40;2.40;;;4.27;55.39;102443.47;4936242;29;20181;-69
2022/03/24 01:05:27;;;;;;;42.72;27.45;;;4.40;2.40;;;4.31;55.37;102444.94;4936411;29;20196;-68
2022/03/24 01:07:58;;;;;;;41.08;26.98;;;4.40;2.60;;;4.19;55.51;102451.28;4919247;29;20604;-69
2022/03/24 01:10:27;;;;;;;43.33;28.70;;;4.40;2.60;;;4.24;55.63;102445.56;4934798;29;20235;-68
2022/03/24 01:12:59;;;;;;;46.30;29.00;;;4.40;2.90;;;4.20;55.78;102441.44;4936148;29;20207;-68
2022/03/24 01:15:30;;;;;;;45.08;29.58;;;4.30;2.90;;;4.02;56.35;102442.91;4936480;29;20197;-68
2022/03/24 01:18:00;;;;;;;42.97;27.08;;;4.30;3.40;;;4.09;56.24;102441.44;4936332;29;20212;-69
2022/03/24 01:20:31;;;;;;;45.50;28.98;;;4.20;3.60;;;4.03;56.46;102439.22;4936827;29;20188;-69
2022/03/24 01:23:02;;;;;;;51.35;31.48;;;4.20;3.90;;;4.04;56.49;102436.44;4936942;29;20646;-69
2022/03/24 01:25:30;;;;;;;41.72;28.13;;;4.20;4.10;;;3.84;56.92;102451.41;4919551;29;20692;-68
2022/03/24 01:27:59;;;;;;;44.00;29.02;;;4.10;4.60;;;3.77;57.35;102444.00;4936412;29;20591;-68
2022/03/24 01:30:28;;;;;;;38.47;25.80;;;4.00;5.20;;;3.84;57.32;102442.53;4919531;29;20215;-69
2022/03/24 01:32:57;;;;;;;39.42;27.08;;;4.00;5.60;;;3.98;56.62;102436.06;4918915;29;20193;-67
2022/03/24 01:35:26;;;;;;;48.50;29.27;;;4.00;5.40;;;3.73;57.07;102438.00;4918954;29;20204;-70
2022/03/24 01:37:55;;;;;;;50.40;27.40;;;3.90;5.70;;;3.67;57.49;102435.84;4935655;29;20221;-69
2022/03/24 01:40:25;;;;;;;40.83;27.27;;;3.90;6.20;;;3.68;57.39;102431.34;4935829;29;20180;-68
2022/03/24 01:42:55;;;;;;;43.90;29.13;;;3.80;6.50;;;3.63;57.83;102434.34;4936228;29;20180;-69
2022/03/24 01:45:26;;;;;;;43.83;28.42;;;3.80;6.80;;;3.46;57.97;102426.78;4918893;29;20568;-70
2022/03/24 01:47:55;;;;;;;39.72;28.15;;;3.70;7.10;;;3.42;58.38;102428.84;4935719;29;20612;-69
2022/03/24 01:50:24;;;;;;;45.17;27.80;;;3.70;7.80;;;3.55;58.06;102433.22;4934411;29;20217;-69
2022/03/24 01:52:53;;;;;;;59.47;28.05;;;3.70;8.60;;;3.41;58.51;102428.97;4935883;29;20232;-69
2022/03/24 01:55:23;;;;;;;39.75;25.73;;;3.70;8.70;;;3.35;58.77;102422.25;4918964;29;20203;-68
2022/03/24 01:57:54;;;;;;;40.88;28.17;;;3.60;9.10;;;3.37;58.74;102420.31;4935211;29;20267;-68
2022/03/24 02:00:24;;;;;;;40.53;28.73;;;3.60;9.50;;;3.34;58.90;102425.91;4918141;29;20195;-68
2022/03/24 02:02:55;;;;;;;44.72;26.27;;;3.60;9.70;;;3.27;58.75;102427.34;4935738;29;20213;-69
2022/03/24 02:05:24;;;;;;;45.30;29.02;;;3.50;10.10;;;3.21;59.10;102425.13;4918428;29;20192;-68
2022/03/24 02:07:53;;;;;;;46.85;29.65;;;3.50;10.60;;;3.11;59.32;102417.94;4935205;29;20632;-69
2022/03/24 02:10:22;;;;;;;36.42;27.13;;;3.40;11.30;;;3.11;59.50;102420.59;4934299;29;20212;-69
2022/03/24 02:12:58;;;;;;;48.38;30.45;;;3.40;11.90;;;3.17;59.57;102418.31;4918299;29;20203;-69
2022/03/24 02:15:29;;;;;;;41.85;28.35;;;3.40;12.60;;;3.20;59.53;102418.06;4918503;29;20188;-69
2022/03/24 02:17:58;;;;;;;40.80;29.27;;;3.40;12.80;;;3.17;59.33;102417.47;4918209;29;20251;-68
2022/03/24 02:20:28;;;;;;;49.53;31.20;;;3.40;12.70;;;3.13;59.49;102410.66;4935602;29;20232;-69
2022/03/24 02:22:59;;;;;;;37.38;28.85;;;3.40;12.90;;;3.10;59.37;102408.22;4918648;29;20204;-69
2022/03/24 02:25:31;;;;;;;43.67;29.98;;;3.30;13.40;;;2.97;59.92;102414.47;4935908;29;20184;-70
2022/03/24 02:28:02;;;;;;;50.90;30.65;;;3.30;13.90;;;2.88;60.24;102409.84;4935852;29;20209;-67
2022/03/24 02:30:31;;;;;;;51.95;31.60;;;3.20;14.90;;;2.88;59.99;102414.31;4935501;29;20205;-68
2022/03/24 02:33:00;;;;;;;42.38;27.98;;;3.10;15.60;;;2.83;60.25;102414.69;4935935;29;20201;-68
2022/03/24 02:35:29;;;;;;;42.75;29.85;;;3.10;16.30;;;2.88;60.39;102412.50;4918823;29;20726;-67
2022/03/24 02:37:59;;;;;;;43.50;31.45;;;3.10;17.30;;;2.85;60.66;102407.41;4935144;29;20212;-67
2022/03/24 02:40:28;;;;;;;44.47;29.73;;;3.00;18.10;;;2.78;60.95;102406.16;4935860;29;20205;-69
2022/03/24 02:42:57;;;;;;;47.30;31.80;;;3.00;19.10;;;2.91;60.74;102406.91;4935656;29;20561;-68
2022/03/24 02:45:25;;;;;;;44.95;28.95;;;3.10;20.00;;;2.85;60.82;102412.75;4935878;29;20189;-69
2022/03/24 02:47:54;;;;;;;41.45;30.88;;;3.10;20.70;;;2.78;61.11;102403.47;4936133;29;20268;-68
2022/03/24 02:50:23;;;;;;;42.22;27.67;;;3.00;21.20;;;2.75;61.31;102406.38;4936368;29;20190;-68
2022/03/24 02:52:58;;;;;;;46.13;31.38;;;3.00;22.30;;;2.67;61.54;102405.22;4935513;29;20273;-68
2022/03/24 02:55:28;;;;;;;41.50;30.15;;;2.90;23.00;;;2.53;61.74;102414.28;4935959;29;20677;-69
2022/03/24 02:57:57;;;;;;;45.45;28.60;;;2.80;24.10;;;2.39;62.15;102412.63;4935416;29;20208;-69
2022/03/24 03:00:27;;;;;;;44.78;28.48;;;2.70;25.50;;;2.34;62.45;102414.78;4935442;29;20213;-68
2022/03/24 03:02:56;;;;;;;44.42;29.98;;;2.60;26.90;;;2.31;62.68;102422.16;4935085;29;20634;-68
2022/03/24 03:05:26;;;;;;;43.55;27.42;;;2.60;28.90;;;2.24;62.87;102423.56;4935375;29;20189;-68
2022/03/24 03:07:55;;;;;;;47.78;30.23;;;2.50;30.50;;;2.16;63.30;102422.31;4935256;29;20208;-69
2022/03/24 03:10:25;;;;;;;48.30;31.50;;;2.40;32.30;;;2.17;62.94;102421.38;4935204;29;20177;-68
2022/03/24 03:12:54;;;;;;;50.72;33.85;;;2.40;34.30;;;2.12;63.06;102426.19;4937879;29;20275;-69
2022/03/24 03:15:23;;;;;;;47.75;31.23;;;2.40;35.70;;;2.13;62.98;102424.38;4938924;29;20213;-69
2022/03/24 03:17:52;;;;;;;46.58;28.65;;;2.30;37.20;;;1.98;63.31;102422.78;4939070;29;20216;-68
2022/03/24 03:20:22;;;;;;;44.65;29.02;;;2.20;38.60;;;1.95;63.88;102431.84;4938917;29;20185;-68
2022/03/24 03:22:56;;;;;;;48.95;32.08;;;2.20;41.90;;;1.83;64.25;102432.75;4953550;29;20172;-68
2022/03/24 03:25:27;;;;;;;47.83;31.80;;;2.10;44.70;;;1.75;64.51;102424.41;4958284;29;20178;-68
2022/03/24 03:27:56;;;;;;;52.95;30.55;;;2.00;48.00;;;1.83;64.54;102427.41;4956216;29;20220;-68
2022/03/24 03:30:25;;;;;;;46.30;30.45;;;2.00;50.90;;;1.88;64.38;102427.06;4958250;29;20193;-68
2022/03/24 03:32:54;;;;;;;44.55;30.02;;;2.00;53.00;;;1.67;65.01;102422.28;4957601;29;20221;-68
2022/03/24 03:35:23;;;;;;;48.33;33.20;;;1.90;55.40;;;1.71;65.08;102428.25;4951741;29;20193;-68
2022/03/24 03:37:52;;;;;;;43.78;30.33;;;1.90;58.30;;;1.64;65.12;102427.00;4938646;29;20613;-69
2022/03/24 03:40:21;;;;;;;44.13;30.73;;;1.90;60.50;;;1.56;65.42;102423.97;4938519;29;20232;-70
2022/03/24 03:42:53;;;;;;;43.22;30.67;;;1.80;64.10;;;1.46;66.13;102433.59;4938042;29;20200;-69
2022/03/24 03:45:22;;;;;;;54.53;34.78;;;1.70;69.70;;;1.41;66.29;102435.72;4938155;29;20183;-69
2022/03/24 03:47:50;;;;;;;52.58;33.60;;;1.70;75.40;;;1.45;66.50;102426.56;4937918;29;20212;-68
2022/03/24 03:50:20;;;;;;;53.33;33.72;;;1.70;80.60;;;1.43;66.46;102433.81;4938245;29;20181;-68
2022/03/24 03:52:49;;;;;;;50.88;32.35;;;1.60;82.90;;;1.36;66.35;102429.84;4938092;29;20622;-68
2022/03/24 03:55:17;;;;;;;45.35;30.52;;;1.60;85.10;;;1.32;66.94;102426.53;4938804;29;20199;-69
2022/03/24 03:57:47;;;;;;;47.00;32.60;;;1.60;88.20;;;1.28;67.00;102425.91;4939242;29;20212;-69
2022/03/24 04:03:05;;;;;;;54.28;34.42;;;1.60;92.40;;;1.24;67.25;102437.75;4938356;29;20185;-67
2022/03/24 04:05:34;;;;;;;56.85;34.97;;;1.60;93.00;;;1.29;67.14;102443.63;4939387;29;20188;-69
2022/03/24 04:08:04;;;;;;;52.50;33.75;;;1.60;93.50;;;1.29;67.22;102437.44;4938034;29;20215;-69
2022/03/24 04:10:33;;;;;;;56.83;36.28;;;1.60;94.50;;;1.22;67.34;102436.97;4949683;29;20192;-68
2022/03/24 04:13:02;;;;;;;57.58;33.97;;;1.50;94.70;;;1.27;67.84;102437.53;4956790;29;20223;-69
2022/03/24 04:15:35;;;;;;;53.10;32.88;;;1.50;95.70;;;1.40;67.49;102434.03;4957225;29;20180;-69
2022/03/24 04:18:05;;;;;;;53.72;33.05;;;1.50;96.80;;;1.24;67.67;102432.41;4957084;29;20213;-68
2022/03/24 04:20:35;;;;;;;51.97;31.67;;;1.50;96.50;;;1.24;67.84;102429.75;4956340;29;20257;-69
2022/03/24 04:23:05;;;;;;;59.83;33.72;;;1.50;97.10;;;1.18;67.81;102432.81;4955645;29;20170;-69
2022/03/24 04:25:37;;;;;;;56.35;34.38;;;1.50;97.40;;;1.31;67.43;102431.00;4956350;29;20188;-69
2022/03/24 04:28:07;;;;;;;53.05;33.33;;;1.50;98.20;;;1.34;67.75;102429.97;4955469;29;20219;-68
2022/03/24 04:30:38;;;;;;;57.53;35.55;;;1.50;98.20;;;1.38;67.48;102427.94;4954953;29;20177;-69
2022/03/24 04:33:07;;;;;;;53.65;34.47;;;1.60;97.90;;;1.33;67.62;102424.72;4954502;29;20197;-68
2022/03/24 04:35:36;;;;;;;57.85;33.60;;;1.50;97.50;;;1.23;67.73;102424.50;4953820;29;20189;-68
2022/03/24 04:38:07;;;;;;;54.15;33.47;;;1.50;98.10;;;1.13;68.17;102432.28;4969326;23;20227;-67
2022/03/24 04:40:36;;;;;;;50.22;33.22;;;1.40;98.70;;;1.04;68.24;102432.03;4988711;28;20179;-67
2022/03/24 04:43:05;;;;;;;51.20;34.05;;;1.30;99.20;;;0.97;68.60;102426.25;4974778;28;20679;-67
2022/03/24 04:45:34;;;;;;;53.15;36.78;;;1.30;99.80;;;0.98;68.86;102427.13;4974601;28;20246;-67
2022/03/24 04:48:05;;;;;;;56.00;35.67;;;1.20;99.90;;;1.17;68.31;102433.78;4968567;28;20211;-67
2022/03/24 04:50:35;;;;;;;45.72;30.75;;;1.40;99.90;;;1.05;68.50;102418.63;4955102;29;20203;-67
2022/03/24 04:53:13;;;;;;;55.60;34.08;;;1.30;99.90;;;0.91;69.08;102421.38;4955355;29;20684;-68
2022/03/24 04:55:43;;;;;;;60.88;35.35;;;1.30;99.90;;;0.95;69.34;102422.00;4955047;29;20553;-66
2022/03/24 04:58:13;;;;;;;52.35;34.58;;;1.20;99.90;;;1.10;68.92;102421.81;4937816;29;20227;-68
2022/03/24 05:00:43;;;;;;;60.97;35.25;;;1.30;99.90;;;1.10;68.76;102416.50;4955174;29;20200;-67
2022/03/24 05:03:14;;;;;;;50.58;32.40;;;1.30;99.90;;;1.08;69.17;102413.06;4955279;29;20566;-67
2022/03/24 05:05:43;;;;;;;53.10;35.25;;;1.30;99.90;;;0.99;69.18;102424.34;4947496;29;20381;-67
2022/03/24 05:08:12;;;;;;;49.88;35.25;;;1.30;99.90;;;1.04;69.20;102424.91;4955301;28;20211;-67
2022/03/24 05:10:42;;;;;;;54.88;34.67;;;1.30;99.90;;;1.11;69.12;102423.53;4946896;29;20199;-68
2022/03/24 05:13:10;;;;;;;49.35;31.75;;;1.30;99.90;;;1.04;69.13;102427.56;4955134;29;20212;-67
2022/03/24 05:15:39;;;;;;;54.05;34.33;;;1.30;99.90;;;1.00;69.22;102427.88;4955337;29;20653;-67
2022/03/24 05:18:08;;;;;;;57.30;34.97;;;1.20;99.90;;;0.96;69.31;102429.91;4954748;28;20208;-68
2022/03/24 05:20:39;;;;;;;54.20;35.65;;;1.20;99.90;;;1.00;69.80;102423.41;4954906;29;20685;-70
2022/03/24 05:23:09;;;;;;;54.08;36.30;;;1.20;99.90;;;1.26;68.74;102432.28;4955313;29;20190;-66
2022/03/24 05:25:38;;;;;;;56.28;35.22;;;1.40;99.90;;;1.16;68.95;102421.38;4954869;29;20182;-68
2022/03/24 05:28:07;;;;;;;57.10;36.10;;;1.40;99.90;;;1.16;69.08;102426.72;4954838;28;20711;-68
2022/03/24 05:30:37;;;;;;;54.17;34.70;;;1.40;99.90;;;1.37;68.71;102429.75;4954423;29;20214;-68
2022/03/24 05:33:06;;;;;;;50.13;35.88;;;1.40;99.90;;;1.49;68.20;102417.38;4954557;29;20238;-68
2022/03/24 05:35:35;;;;;;;56.80;35.22;;;1.60;99.90;;;1.46;68.09;102420.25;4954671;28;20203;-67
2022/03/24 05:38:06;;;;;;;64.45;36.75;;;1.60;99.90;;;1.42;68.42;102422.28;4954143;28;20227;-67
2022/03/24 05:40:36;;;;;;;67.22;36.35;;;1.60;99.90;;;1.42;68.34;102422.28;4954592;29;20267;-68
2022/03/24 05:43:06;;;;;;;68.07;37.03;;;1.60;99.90;;;1.42;68.51;102421.41;4954521;29;20243;-68
2022/03/24 05:45:34;;;;;;;63.47;36.88;;;1.60;99.90;;;1.52;68.09;102430.50;4954393;29;20601;-67
2022/03/24 05:48:04;;;;;;;56.45;34.53;;;1.60;99.90;;;1.67;67.73;102416.94;4954162;28;20216;-67
2022/03/24 05:50:48;;;;;;;63.00;36.75;;;1.70;99.90;;;1.69;67.88;102419.53;4954091;29;20270;-67
2022/03/24 05:53:28;;;;;;;60.15;36.60;;;1.80;99.30;;;1.69;67.62;102424.84;4953978;29;20204;-67
2022/03/24 05:55:57;;;;;;;62.83;35.85;;;1.80;98.80;;;1.70;68.20;102431.88;4953722;29;20605;-66
2022/03/24 05:58:26;;;;;;;67.38;37.63;;;1.80;99.70;;;1.73;67.87;102432.53;4953760;28;20207;-68
2022/03/24 06:00:56;;;;;;;64.45;37.60;;;1.80;99.20;;;1.80;67.45;102437.41;4953760;29;20188;-68
2022/03/24 06:03:25;;;;;;;57.95;38.08;;;1.90;99.30;;;1.87;67.48;102438.72;4953780;29;20214;-67
2022/03/24 06:05:58;;;;;;;60.47;37.67;;;1.90;98.40;;;2.07;67.06;102446.16;4953984;29;20176;-67
2022/03/24 06:08:30;;;;;;;68.70;41.25;;;2.00;98.00;;;2.12;67.11;102447.56;4953966;28;20681;-67
2022/03/24 06:11:01;;;;;;;57.80;37.03;;;2.20;97.80;;;2.27;66.81;102442.06;4953511;29;20211;-68
2022/03/24 06:13:30;;;;;;;51.35;39.38;;;2.20;96.90;;;2.34;66.66;102446.84;4953662;29;20271;-68
2022/03/24 06:16:01;;;;;;;68.82;38.03;;;2.40;96.10;;;2.36;66.32;102449.41;4953888;28;20588;-68
2022/03/24 06:18:32;;;;;;;61.08;38.83;;;2.40;95.80;;;2.47;66.45;102444.97;4954062;28;20211;-68
2022/03/24 06:21:01;;;;;;;59.35;41.75;;;2.50;95.40;;;2.66;65.49;102449.84;4953751;29;20200;-67
2022/03/24 06:23:32;;;;;;;62.25;40.95;;;2.60;94.10;;;2.75;65.60;102449.16;4953483;29;20269;-67
2022/03/24 06:26:02;;;;;;;60.58;39.80;;;2.70;92.30;;;2.96;64.87;102444.88;4953634;29;20216;-68
2022/03/24 06:28:31;;;;;;;67.13;39.72;;;2.90;91.40;;;3.01;64.68;102439.16;4953677;28;20212;-69
2022/03/24 06:31:00;;;;;;;52.17;37.88;;;3.00;88.30;;;3.13;64.49;102443.59;4953098;29;20200;-68
2022/03/24 06:33:29;;;;;;;71.13;41.92;;;3.10;87.00;;;3.29;63.97;102454.00;4953613;29;20279;-68
2022/03/24 06:35:58;;;;;;;60.95;40.78;;;3.30;82.10;;;3.32;64.09;102448.41;4952665;29;20247;-67
2022/03/24 06:38:27;;;;;;;65.60;41.05;;;3.30;80.30;;;3.52;63.64;102458.44;4953756;28;20692;-67
2022/03/24 06:40:58;;;;;;;60.67;38.35;;;3.50;78.60;;;3.64;63.41;102452.13;4953509;29;20189;-66
2022/03/24 06:43:27;;;;;;;65.13;40.28;;;3.60;75.60;;;3.74;62.92;102454.91;4953529;29;20177;-69
2022/03/24 06:45:57;;;;;;;69.57;41.30;;;3.70;71.90;;;3.92;62.56;102457.00;4953401;28;20200;-66
2022/03/24 06:48:26;;;;;;;61.25;39.40;;;3.80;68.60;;;4.15;61.86;102459.69;4939330;29;20275;-68
2022/03/24 06:50:55;;;;;;;67.53;40.72;;;4.00;64.70;;;4.16;61.70;102456.06;4956832;29;20219;-68
2022/03/24 06:53:24;;;;;;;74.28;40.63;;;4.20;56.80;;;4.28;61.71;102455.91;4957074;29;20204;-67
2022/03/24 06:55:57;;;;;;;63.60;39.95;;;4.20;57.30;;;4.40;61.21;102456.75;4956649;29;20284;-67
2022/03/24 06:58:26;;;;;;;62.67;41.85;;;4.40;53.10;;;4.57;60.73;102456.22;4950245;29;20209;-67
2022/03/24 07:00:55;;;;;;;63.55;41.25;;;4.50;52.00;;;4.87;60.03;102462.72;4957398;29;20208;-66
2022/03/24 07:03:24;;;;;;;62.20;38.95;;;4.80;47.40;;;4.86;59.68;102469.91;4957224;29;20184;-68
2022/03/24 07:05:54;;;;;;;60.97;42.90;;;4.90;45.10;;;4.96;59.90;102467.31;4957494;29;20341;-67
2022/03/24 07:08:25;;;;;;;67.07;43.72;;;5.00;42.90;;;5.03;59.94;102464.03;4961094;28;20212;-68
2022/03/24 07:10:54;;;;;;;65.85;39.80;;;5.10;42.00;;;5.21;59.28;102464.31;4960614;29;20560;-68
2022/03/24 07:13:24;;;;;;;59.42;41.80;;;5.20;40.70;;;5.30;59.05;102471.56;4962529;29;20211;-68
2022/03/24 07:15:54;;;;;;;56.28;41.58;;;5.30;37.80;;;5.45;58.64;102466.72;4963468;29;20172;-68
2022/03/24 07:18:23;;;;;;;60.80;42.33;;;5.40;36.20;;;5.61;58.38;102468.00;4963747;28;20275;-68
2022/03/24 07:20:52;;;;;;;65.55;41.63;;;5.60;35.40;;;5.80;57.83;102471.75;4961952;29;20629;-69
2022/03/24 07:23:22;;;;;;;58.50;42.55;;;5.70;34.50;;;5.90;57.93;102462.81;4961734;29;20560;-67
2022/03/24 07:25:51;;;;;;;64.70;42.75;;;5.80;32.40;;;6.03;57.52;102468.81;4961668;29;20197;-68
2022/03/24 07:28:20;;;;;;;68.30;44.22;;;5.90;31.50;;;6.42;56.46;102467.13;4961572;28;20215;-68
2022/03/24 07:30:51;;;;;;;82.93;47.05;;;6.20;30.10;;;6.52;56.45;102465.31;4961470;29;20188;-68
2022/03/24 07:33:21;;;;;;;72.45;44.70;;;6.30;28.60;;;6.63;55.83;102469.72;4964815;29;20220;-67
2022/03/24 07:35:51;;;;;;;61.13;41.95;;;6.40;27.50;;;6.79;55.45;102469.16;4964696;29;20176;-67
2022/03/24 07:38:20;;;;;;;59.53;42.60;;;6.60;25.70;;;6.93;55.36;102471.44;4959281;28;20751;-69
2022/03/24 07:40:55;;;;;;;65.93;43.42;;;6.70;25.00;;;7.12;54.94;102468.75;4956528;29;20184;-67
2022/03/24 07:43:25;;;;;;;64.03;41.85;;;6.90;23.80;;;7.28;54.43;102466.38;4956705;29;20700;-68
2022/03/24 07:45:55;;;;;;;63.33;43.58;;;7.10;22.70;;;7.49;53.86;102476.13;4956471;29;20538;-68
2022/03/24 07:48:26;;;;;;;61.05;40.70;;;7.30;22.20;;;7.55;53.38;102473.69;4956277;28;20230;-69
2022/03/24 07:51:00;;;;;;;60.70;42.28;;;7.40;20.50;;;7.32;54.02;102470.47;4956106;29;20251;-67
2022/03/24 07:53:59;;;;;;;56.13;38.42;;;7.30;19.50;;;7.32;53.74;102473.16;4955640;29;20201;-67
2022/03/24 07:56:29;;;;;;;55.42;38.78;;;7.30;18.80;;;7.49;53.36;102470.75;4955723;29;20653;-68
2022/03/24 07:58:59;;;;;;;61.50;42.78;;;7.40;18.70;;;7.83;52.48;102471.97;4954572;28;20278;-66
2022/03/24 08:01:32;;;;;;;60.33;41.17;;;7.60;18.10;;;7.78;52.46;102468.84;4955626;29;20483;-66
2022/03/24 08:04:05;;;;;;;54.17;40.28;;;7.60;17.10;;;8.10;51.95;102469.31;4955311;29;20208;-67
2022/03/24 08:06:36;;;;;;;53.92;39.65;;;7.80;16.60;;;8.31;51.42;102474.50;4955517;29;20283;-68
2022/03/24 08:09:05;;;;;;;51.08;38.45;;;8.10;16.00;;;8.40;50.69;102470.06;4955168;29;20257;-67
2022/03/24 08:11:34;;;;;;;57.38;37.60;;;8.30;14.60;;;8.36;50.84;102474.91;4955463;29;20254;-67
2022/03/24 08:14:03;;;;;;;54.15;39.22;;;8.30;13.80;;;8.45;50.82;102474.00;4955370;29;20459;-68
2022/03/24 08:16:34;;;;;;;58.03;41.60;;;8.30;13.40;;;8.45;50.98;102474.00;4974018;28;20250;-67
2022/03/24 08:19:03;;;;;;;62.97;42.28;;;8.30;13.40;;;8.81;50.03;102479.47;4974434;28;20203;-65
2022/03/24 08:21:32;;;;;;;70.43;44.60;;;8.50;12.80;;;8.99;49.47;102467.69;4974260;28;20238;-67
2022/03/24 08:24:02;;;;;;;60.00;44.80;;;8.80;12.10;;;8.90;49.98;102467.78;4974463;28;20515;-67
2022/03/24 08:26:31;;;;;;;64.10;41.00;;;8.80;11.50;;;9.03;49.43;102474.47;4974633;28;20190;-67
2022/03/24 08:29:01;;;;;;;57.38;41.95;;;8.90;10.90;;;9.09;49.43;102473.88;4974518;28;20478;-67
2022/03/24 08:31:30;;;;;;;58.97;42.63;;;8.90;10.70;;;9.22;49.16;102475.31;4974634;28;20175;-67
2022/03/24 08:34:00;;;;;;;55.45;42.65;;;9.10;10.20;;;9.12;49.45;102470.84;4974578;28;20618;-67
2022/03/24 08:36:29;;;;;;;60.58;41.42;;;9.10;10.10;;;9.31;49.21;102471.69;4974772;28;20195;-66
2022/03/24 08:38:59;;;;;;;59.70;38.95;;;9.20;9.90;;;9.49;48.72;102473.34;4974189;28;20211;-67
2022/03/24 08:41:28;;;;;;;61.15;41.22;;;9.30;9.40;;;9.64;48.24;102476.34;4974258;28;20191;-66
2022/03/24 08:43:58;;;;;;;54.47;39.80;;;9.40;8.80;;;9.97;47.37;102467.44;4973871;28;20670;-66
2022/03/24 08:46:27;;;;;;;54.67;36.13;;;9.70;8.30;;;9.99;46.68;102473.53;4974052;28;20184;-67
2022/03/24 08:48:56;;;;;;;54.22;42.00;;;9.80;6.80;;;10.01;47.15;102476.09;4973517;28;20242;-67
2022/03/24 08:51:27;;;;;;;58.25;38.53;;;9.80;6.80;;;10.24;46.61;102473.72;4973975;28;20259;-66
2022/03/24 08:53:56;;;;;;;54.78;39.78;;;10.00;5.70;;;10.30;46.39;102475.78;4973925;28;20219;-67
2022/03/24 08:56:25;;;;;;;50.05;39.15;;;10.10;5.20;;;10.43;46.31;102477.03;4973986;28;20179;-68
2022/03/24 08:58:54;;;;;;;60.00;45.95;;;10.20;5.10;;;10.48;46.26;102476.53;4957199;28;20740;-69
2022/03/24 09:01:23;;;;;;;60.50;42.30;;;10.20;4.50;;;10.78;45.69;102481.38;4974540;28;20192;-67
2022/03/24 09:03:53;;;;;;;57.03;38.70;;;10.50;4.10;;;11.02;45.12;102488.72;4966929;28;20302;-67
2022/03/24 09:06:23;;;;;;;49.90;39.50;;;10.70;3.50;;;10.91;45.40;102486.31;4964723;28;20427;-68
2022/03/24 09:08:53;;;;;;;50.75;38.97;;;10.70;3.10;;;10.90;44.29;102485.44;4954576;28;20700;-67
2022/03/24 09:11:22;;;;;;;51.63;36.72;;;10.80;1.20;;;11.05;43.87;102482.94;4954517;29;20172;-69
2022/03/24 09:13:52;;;;;;;56.17;37.55;;;10.90;1.20;;;11.07;43.71;102482.78;4954893;29;20668;-68
2022/03/24 09:16:22;;;;;;;54.38;38.17;;;10.90;1.30;;;11.09;44.05;102486.16;4971802;28;20172;-68
2022/03/24 09:18:51;;;;;;;61.13;40.60;;;11.00;1.00;;;11.12;44.01;102485.84;4974295;28;20207;-67
2022/03/24 09:21:20;;;;;;;51.20;37.30;;;10.90;1.00;;;11.36;42.90;102483.16;4973833;28;20210;-68
2022/03/24 09:23:50;;;;;;;52.40;39.00;;;11.00;1.00;;;11.70;42.54;102489.25;4973753;28;20423;-68
2022/03/24 09:26:20;;;;;;;47.60;34.20;;;11.20;1.00;;;11.82;41.07;102483.47;4972848;28;20442;-68
2022/03/24 09:29:01;;;;;;;51.60;36.27;;;11.50;1.00;;;11.85;40.64;102491.28;4974652;28;20451;-68
2022/03/24 09:31:30;;;;;;;46.93;32.80;;;11.70;1.00;;;11.97;40.21;102489.91;4974852;28;20522;-68
2022/03/24 09:34:01;;;;;;;44.70;34.60;;;11.70;1.00;;;11.97;40.19;102488.03;4967370;28;20439;-68
2022/03/24 09:36:30;;;;;;;52.03;35.50;;;11.90;1.00;;;11.89;40.43;102495.34;4954197;29;20936;-68
2022/03/24 09:38:59;;;;;;;40.73;32.83;;;11.90;1.00;;;12.10;39.27;102490.22;4954459;28;20497;-68
2022/03/24 09:41:32;;;;;;;41.67;30.20;;;11.90;1.00;;;12.24;38.88;102492.22;4954469;29;20450;-68
2022/03/24 09:44:01;;;;;;;41.83;32.43;;;12.10;1.00;;;12.32;38.38;102486.75;4954309;29;20493;-67
2022/03/24 09:46:31;;;;;;;47.10;33.43;;;12.10;1.00;;;12.39;38.42;102489.63;4954462;29;20432;-67
2022/03/24 09:49:01;;;;;;;39.77;29.93;;;12.10;1.00;;;12.45;38.42;102484.31;4958944;28;20452;-67
2022/03/24 09:51:31;;;;;;;37.07;29.77;;;12.20;1.00;;;12.67;38.04;102492.72;4958024;29;20407;-68
2022/03/24 09:54:02;;;;;;;41.63;29.70;;;12.30;1.00;;;12.69;38.12;102491.50;4969599;28;20445;-69
2022/03/24 09:56:32;;;;;;;43.63;32.17;;;12.30;1.00;;;12.80;37.74;102485.69;4975122;28;20567;-68
2022/03/24 09:59:03;;;;;;;43.37;32.83;;;12.60;1.00;;;12.72;38.23;102485.75;4973861;28;20868;-68
2022/03/24 10:01:32;;;;;;;44.90;32.63;;;12.50;1.00;;;13.04;37.50;102481.97;4972846;28;20995;-68
2022/03/24 10:04:08;;;;;;;41.50;32.40;;;12.70;1.00;;;13.17;37.39;102479.53;4973000;28;20397;-67
2022/03/24 10:06:40;;;;;;;43.33;31.87;;;12.90;1.00;;;13.37;37.00;102478.03;4973972;28;20429;-67
2022/03/24 10:09:09;;;;;;;45.10;29.67;;;13.10;1.00;;;13.35;36.67;102476.53;4974153;28;20439;-67
2022/03/24 10:11:49;;;;;;;38.47;32.30;;;13.10;1.00;;;12.91;37.20;102468.13;4973151;28;20447;-67
2022/03/24 10:14:24;;;;;;;46.43;34.37;;;13.00;1.00;;;13.17;37.36;102474.09;4973454;28;20422;-68
2022/03/24 10:16:53;;;;;;;42.27;33.03;;;13.00;1.00;;;13.29;37.55;102472.66;4974168;28;20465;-66
2022/03/24 10:19:23;;;;;;;39.97;30.10;;;13.10;1.00;;;13.52;35.96;102475.34;4971938;28;20482;-67
2022/03/24 10:21:52;;;;;;;42.77;31.07;;;13.30;1.00;;;13.70;35.52;102475.03;4972482;28;20427;-67
2022/03/24 10:24:23;;;;;;;43.13;28.70;;;13.50;1.00;;;13.93;35.67;102471.22;4976255;28;20501;-67
2022/03/24 10:27:00;;;;;;;41.73;30.17;;;13.60;1.00;;;13.73;35.14;102478.22;4976665;28;20923;-67